Time;durP1;ratioP1;P1;durP2;ratioP2;P2;SDS_P1;SDS_P2;PMS_P1;PMS_P2;Temp;Humidity;BMP_temperature;BMP_pressure;BME280_temperature;BME280_humidity;BME280_pressure;Samples;Min_cycle;Max_cycle;Signal;HPM_P1;HPM_P2
2022/12/12 00:01:48;;;;;;;0.93;0.93;;;;;;;0.19;78.62;98520.25;5015051;28;20050;-67
2022/12/12 00:04:17;;;;;;;1.02;1.02;;;;;;;0.16;79.23;98517.66;5014962;28;20045;-66
2022/12/12 00:06:46;;;;;;;0.65;0.65;;;;;;;0.12;79.15;98510.88;5014853;28;20042;-66
2022/12/12 00:09:15;;;;;;;0.97;0.97;;;;;;;0.10;79.39;98514.19;5014733;28;20397;-66
2022/12/12 00:11:44;;;;;;;1.17;1.10;;;;;;;0.10;78.87;98524.22;5014785;28;20046;-66
2022/12/12 00:14:13;;;;;;;3.63;1.90;;;;;;;0.09;79.00;98523.38;5014487;28;20037;-68
2022/12/12 00:16:43;;;;;;;0.70;0.70;;;;;;;0.10;79.50;98529.25;5014430;28;20041;-66
2022/12/12 00:19:12;;;;;;;1.23;1.15;;;;;;;0.09;79.46;98525.03;5014469;28;20046;-66
2022/12/12 00:21:41;;;;;;;2.00;1.80;;;;;;;0.10;79.73;98524.22;5014221;28;20034;-67
2022/12/12 00:24:12;;;;;;;1.13;1.13;;;;;;;0.11;79.65;98515.88;5014325;28;20050;-67
2022/12/12 00:26:40;;;;;;;0.80;0.80;;;;;;;0.13;79.35;98520.09;5014541;28;20132;-66
2022/12/12 00:29:11;;;;;;;0.70;0.68;;;;;;;0.12;79.75;98523.41;5014106;28;20038;-66
2022/12/12 00:31:39;;;;;;;1.60;1.20;;;;;;;0.13;79.35;98521.75;5014121;28;20136;-67
2022/12/12 00:34:10;;;;;;;0.50;0.50;;;;;;;0.15;79.64;98527.66;5014146;28;20058;-67
2022/12/12 00:36:38;;;;;;;2.15;1.95;;;;;;;0.09;79.66;98530.03;5014380;28;20630;-66
2022/12/12 00:39:07;;;;;;;1.75;1.45;;;;;;;0.07;79.95;98529.16;5014051;28;20073;-66
2022/12/12 00:41:42;;;;;;;0.65;0.65;;;;;;;-0.02;79.81;98530.66;5013974;28;20492;-66
2022/12/12 00:44:11;;;;;;;0.80;0.80;;;;;;;-0.01;79.71;98531.50;5014036;28;20045;-66
2022/12/12 00:46:40;;;;;;;1.63;1.23;;;;;;;-0.07;79.99;98532.19;5014268;28;20042;-66
2022/12/12 00:49:11;;;;;;;1.08;1.02;;;;;;;-0.10;80.16;98537.13;4994187;28;20046;-67
2022/12/12 00:51:40;;;;;;;2.00;1.90;;;;;;;-0.05;80.43;98535.56;4994600;28;20508;-66
2022/12/12 00:54:10;;;;;;;1.85;1.30;;;;;;;-0.01;80.33;98532.34;4994227;28;20046;-66
2022/12/12 00:56:39;;;;;;;;;;;;;;;-0.09;80.34;98541.34;4993486;28;20045;-66
2022/12/12 00:59:08;;;;;;;;;;;;;;;-0.18;80.71;98527.75;4994620;28;20016;-66
2022/12/12 01:01:37;;;;;;;0.75;0.75;;;;;;;-0.19;80.67;98536.94;4994117;28;19921;-66
2022/12/12 01:04:06;;;;;;;2.15;1.95;;;;;;;-0.22;80.83;98531.88;4994113;28;20035;-66
2022/12/12 01:06:36;;;;;;;0.65;0.65;;;;;;;-0.23;80.92;98520.13;4994467;28;20068;-66
2022/12/12 01:09:05;;;;;;;0.70;0.70;;;;;;;-0.16;81.22;98534.50;4994069;28;20042;-66
2022/12/12 01:11:33;;;;;;;0.70;0.70;;;;;;;-0.14;81.17;98530.38;4994107;28;20095;-66
2022/12/12 01:14:02;;;;;;;2.63;2.43;;;;;;;-0.20;81.21;98530.25;4994334;28;20050;-66
2022/12/12 01:16:31;;;;;;;1.83;1.23;;;;;;;-0.20;81.19;98534.41;4994080;28;20035;-66
2022/12/12 01:19:00;;;;;;;1.00;1.00;;;;;;;-0.19;80.88;98536.94;4994389;28;20038;-66
2022/12/12 01:21:28;;;;;;;0.70;0.70;;;;;;;-0.21;81.11;98532.69;4994055;28;20125;-66
2022/12/12 01:24:00;;;;;;;1.58;1.48;;;;;;;-0.31;80.74;98536.66;4994245;28;20093;-67
2022/12/12 01:26:29;;;;;;;2.25;2.05;;;;;;;-0.31;80.93;98546.66;4994346;28;20097;-66
2022/12/12 01:28:57;;;;;;;1.40;1.33;;;;;;;-0.36;81.36;98538.19;4994094;28;20113;-66
2022/12/12 01:31:26;;;;;;;0.60;0.60;;;;;;;-0.36;81.09;98543.22;4994744;28;20042;-66
2022/12/12 01:33:55;;;;;;;1.03;0.73;;;;;;;-0.29;81.29;98535.03;4993857;28;20049;-66
2022/12/12 01:36:24;;;;;;;0.45;0.45;;;;;;;-0.30;81.42;98523.31;4994242;28;20121;-66
2022/12/12 01:38:55;;;;;;;2.92;1.75;;;;;;;-0.24;81.22;98527.63;4993823;28;20097;-66
2022/12/12 01:41:26;;;;;;;2.47;2.30;;;;;;;-0.21;81.07;98523.53;4994178;28;20496;-66
2022/12/12 01:43:55;;;;;;;4.20;3.90;;;;;;;-0.21;80.59;98523.53;4993876;28;20046;-67
2022/12/12 01:46:38;;;;;;;5.45;2.72;;;;;;;-0.21;80.17;98525.19;4994179;28;20101;-67
2022/12/12 01:49:21;;;;;;;0.88;0.85;;;;;;;-0.19;80.14;98526.91;5012949;28;20058;-66
2022/12/12 01:51:54;;;;;;;0.68;0.68;;;;;;;-0.21;79.80;98528.53;5013938;28;20485;-66
2022/12/12 01:54:27;;;;;;;0.77;0.77;;;;;;;-0.20;79.67;98525.22;5013337;28;20056;-66
2022/12/12 01:57:01;;;;;;;1.65;1.55;;;;;;;-0.23;79.72;98530.16;5013304;28;20053;-66
2022/12/12 01:59:29;;;;;;;2.42;1.55;;;;;;;-0.23;79.44;98519.28;5013278;28;20497;-66
2022/12/12 02:01:58;;;;;;;2.47;2.17;;;;;;;-0.25;79.17;98525.94;5013224;28;20045;-66
2022/12/12 02:04:28;;;;;;;1.60;1.52;;;;;;;-0.26;79.07;98525.06;5013451;28;20046;-66
2022/12/12 02:06:57;;;;;;;1.40;1.30;;;;;;;-0.21;79.54;98520.16;5013518;28;20068;-66
2022/12/12 02:09:27;;;;;;;1.77;1.67;;;;;;;-0.20;79.15;98522.72;5013397;28;20488;-66
2022/12/12 02:11:58;;;;;;;1.05;1.05;;;;;;;-0.24;78.96;98517.59;5013157;28;20052;-66
2022/12/12 02:14:30;;;;;;;1.90;1.77;;;;;;;-0.28;78.83;98506.66;5016290;28;20103;-66
2022/12/12 02:17:16;;;;;;;1.23;1.13;;;;;;;-0.25;78.77;98516.75;5016931;28;20468;-66
2022/12/12 02:20:20;;;;;;;0.75;0.75;;;;;;;-0.28;77.97;98514.16;5016918;28;20053;-66
2022/12/12 02:23:15;;;;;;;0.70;0.70;;;;;;;-0.33;78.55;98523.25;4994856;28;20085;-66
2022/12/12 02:26:15;;;;;;;1.27;1.20;;;;;;;-0.48;77.82;98507.84;4974385;28;20104;-66
2022/12/12 02:29:24;;;;;;;11.95;1.80;;;;;;;-0.47;77.91;98524.59;5016202;28;20046;-66
2022/12/12 02:32:03;;;;;;;0.95;0.95;;;;;;;-0.51;77.76;98516.97;4992906;28;20515;-66
2022/12/12 02:34:40;;;;;;;0.70;0.70;;;;;;;-0.56;77.69;98509.34;5016360;28;20073;-66
2022/12/12 02:37:19;;;;;;;1.27;1.25;;;;;;;-0.58;77.77;98505.09;5016250;28;20562;-66
2022/12/12 02:39:55;;;;;;;1.25;1.15;;;;;;;-0.49;77.68;98515.34;5016237;28;20073;-66
2022/12/12 02:42:29;;;;;;;0.50;0.50;;;;;;;-0.51;77.04;98510.28;5016202;28;20100;-66
2022/12/12 02:45:05;;;;;;;0.55;0.55;;;;;;;-0.50;77.22;98511.97;5016139;28;20542;-66
2022/12/12 02:47:39;;;;;;;1.30;1.30;;;;;;;-0.55;77.02;98511.00;4995129;28;20050;-66
2022/12/12 02:50:11;;;;;;;0.82;0.82;;;;;;;-0.53;77.04;98509.41;4996389;28;20072;-66
2022/12/12 02:52:43;;;;;;;0.70;0.70;;;;;;;-0.50;76.65;98514.47;4996439;28;20050;-66
2022/12/12 02:55:11;;;;;;;1.00;0.98;;;;;;;-0.53;76.61;98504.41;4996328;28;20046;-66
2022/12/12 02:57:40;;;;;;;0.68;0.68;;;;;;;-0.49;76.25;98521.19;4996499;28;20114;-67
2022/12/12 03:00:12;;;;;;;0.63;0.63;;;;;;;-0.48;76.14;98517.03;4996559;28;20101;-66
2022/12/12 03:08:45;;;;;;;0.90;0.90;;;;;;;-0.53;75.25;98521.94;4996112;28;20054;-66
2022/12/12 03:11:21;;;;;;;0.77;0.77;;;;;;;-0.52;74.66;98521.13;4996656;28;20046;-66
2022/12/12 03:13:55;;;;;;;1.52;1.42;;;;;;;-0.61;74.13;98505.88;4996106;28;20082;-66
2022/12/12 03:16:28;;;;;;;2.17;2.08;;;;;;;-0.50;74.35;98524.50;4996271;28;20049;-66
2022/12/12 03:19:09;;;;;;;1.30;1.23;;;;;;;-0.50;74.02;98523.66;4996241;28;20058;-66
2022/12/12 03:21:46;;;;;;;0.60;0.60;;;;;;;-0.52;74.07;98526.13;4996220;28;20046;-66
2022/12/12 03:24:22;;;;;;;0.55;0.55;;;;;;;-0.51;74.01;98532.84;4996156;28;20393;-66
2022/12/12 03:26:55;;;;;;;0.60;0.60;;;;;;;-0.55;74.21;98535.25;4996041;28;20485;-66
2022/12/12 03:29:29;;;;;;;1.05;0.80;;;;;;;-0.57;74.16;98532.69;4995621;28;20058;-66
2022/12/12 03:32:05;;;;;;;1.77;1.67;;;;;;;-0.55;73.93;98532.75;4996550;28;20049;-66
2022/12/12 03:34:39;;;;;;;0.85;0.85;;;;;;;-0.56;73.76;98533.53;4995950;28;20069;-66
2022/12/12 03:37:13;;;;;;;1.42;1.33;;;;;;;-0.59;74.05;98539.31;4995568;28;20038;-66
2022/12/12 03:39:47;;;;;;;0.50;0.50;;;;;;;-0.57;73.70;98545.22;4994321;28;20053;-66
2022/12/12 03:42:22;;;;;;;0.60;0.60;;;;;;;-0.57;74.10;98537.69;4995487;28;20053;-66
2022/12/12 03:45:00;;;;;;;0.45;0.45;;;;;;;-0.54;74.02;98542.78;4995692;28;20504;-66
2022/12/12 03:47:35;;;;;;;1.80;1.70;;;;;;;-0.51;74.20;98547.03;5001237;28;20108;-66
2022/12/12 03:50:11;;;;;;;1.58;1.40;;;;;;;-0.54;73.56;98537.78;5015026;28;20042;-66
2022/12/12 03:52:46;;;;;;;0.98;0.98;;;;;;;-0.57;73.93;98547.72;5014910;28;20062;-66
2022/12/12 03:55:22;;;;;;;2.17;2.08;;;;;;;-0.59;74.11;98544.31;5014771;28;20050;-66
2022/12/12 03:57:56;;;;;;;0.73;0.73;;;;;;;-0.60;73.82;98542.63;5015064;28;20053;-66
2022/12/12 04:00:29;;;;;;;1.10;1.05;;;;;;;-0.60;73.95;98550.13;5015122;28;20045;-67
2022/12/12 04:03:05;;;;;;;1.85;1.35;;;;;;;-0.59;73.73;98549.34;5014703;28;20041;-67
2022/12/12 04:06:25;;;;;;;0.82;0.82;;;;;;;-0.57;73.97;98552.72;5014635;28;20133;-66
2022/12/12 04:08:33;;;;;;;0.70;0.70;;;;;;;-0.67;73.73;98543.28;5014617;28;20132;-66
2022/12/12 04:14:15;;;;;;;1.00;0.90;;;;;;;-0.67;73.75;98555.81;4989796;28;20160;-66
2022/12/12 04:16:46;;;;;;;0.65;0.65;;;;;;;-0.68;73.58;98554.13;5014782;28;20049;-67
2022/12/12 04:25:04;;;;;;;1.23;1.13;;;;;;;-0.65;73.02;98561.72;5014334;28;20061;-66
2022/12/12 04:27:38;;;;;;;1.48;1.38;;;;;;;-0.67;72.84;98575.84;5014580;28;20392;-66
2022/12/12 04:30:11;;;;;;;0.60;0.60;;;;;;;-0.69;72.35;98569.94;5014589;28;20369;-66
2022/12/12 04:32:43;;;;;;;0.80;0.80;;;;;;;-0.78;71.96;98562.22;5014245;28;20041;-66
2022/12/12 04:35:16;;;;;;;2.28;1.45;;;;;;;-0.84;72.08;98562.06;5014004;28;20377;-66
2022/12/12 04:37:51;;;;;;;0.63;0.63;;;;;;;-0.83;72.09;98563.75;5014389;28;20042;-66
2022/12/12 04:40:24;;;;;;;0.40;0.40;;;;;;;-0.86;71.86;98568.66;5013980;28;20431;-66
2022/12/12 04:42:57;;;;;;;0.77;0.77;;;;;;;-0.92;71.84;98568.53;5014086;28;20046;-66
2022/12/12 04:45:31;;;;;;;0.70;0.70;;;;;;;-0.95;71.93;98573.44;5014272;28;20054;-66
2022/12/12 04:48:01;;;;;;;0.60;0.60;;;;;;;-1.01;71.52;98570.78;5013929;28;20089;-66
2022/12/12 04:50:33;;;;;;;1.58;1.48;;;;;;;-0.95;71.78;98578.44;5014063;28;20453;-66
2022/12/12 04:53:07;;;;;;;0.88;0.88;;;;;;;-0.94;71.78;98585.16;5014133;28;20538;-67
2022/12/12 04:55:47;;;;;;;2.33;2.15;;;;;;;-1.04;71.66;98570.69;5013899;28;20068;-66
2022/12/12 04:58:16;;;;;;;0.70;0.70;;;;;;;-0.95;71.74;98585.97;4980345;28;20054;-67
2022/12/12 05:00:52;;;;;;;1.42;1.33;;;;;;;-0.94;71.73;98585.16;5013737;28;20046;-66
2022/12/12 05:03:32;;;;;;;1.08;1.08;;;;;;;-0.96;71.67;98596.78;5013771;28;20100;-67
2022/12/12 05:06:06;;;;;;;1.45;1.35;;;;;;;-0.94;71.69;98597.69;5013794;28;20050;-66
2022/12/12 05:08:39;;;;;;;0.60;0.60;;;;;;;-0.95;71.51;98600.97;5013706;28;20065;-66
2022/12/12 05:11:09;;;;;;;5.05;1.83;;;;;;;-0.97;71.34;98600.94;5013723;28;20488;-66
2022/12/12 05:13:40;;;;;;;1.40;1.30;;;;;;;-1.09;71.42;98584.75;5013972;28;20042;-67
2022/12/12 05:16:16;;;;;;;0.77;0.55;;;;;;;-0.96;71.31;98604.31;5013672;28;20064;-66
2022/12/12 05:18:46;;;;;;;0.80;0.55;;;;;;;-0.96;71.26;98604.31;5013650;28;20077;-67
2022/12/12 05:21:15;;;;;;;1.75;1.65;;;;;;;-0.97;71.22;98605.97;5013546;28;20048;-66
2022/12/12 05:23:46;;;;;;;0.68;0.68;;;;;;;-0.99;71.28;98602.56;5013608;28;20484;-66
2022/12/12 05:26:21;;;;;;;0.50;0.50;;;;;;;-0.94;71.31;98610.19;5013877;28;20385;-66
2022/12/12 05:28:50;;;;;;;0.68;0.68;;;;;;;-0.95;70.70;98613.50;5013579;28;20053;-66
2022/12/12 05:31:19;;;;;;;0.98;0.98;;;;;;;-0.97;71.12;98615.13;5013346;28;20066;-66
2022/12/12 05:33:48;;;;;;;1.35;1.25;;;;;;;-0.98;71.07;98608.41;5013728;28;20041;-66
2022/12/12 05:36:17;;;;;;;3.53;2.10;;;;;;;-0.97;71.07;98608.47;5013435;28;20137;-67
2022/12/12 05:38:48;;;;;;;0.60;0.60;;;;;;;-1.03;70.75;98609.97;5013748;28;20038;-66
2022/12/12 05:41:16;;;;;;;2.13;2.03;;;;;;;-1.06;70.92;98609.88;5013363;28;20042;-66
2022/12/12 05:43:45;;;;;;;1.25;1.15;;;;;;;-1.05;70.81;98616.56;5013394;28;20089;-66
2022/12/12 05:46:14;;;;;;;0.68;0.68;;;;;;;-1.05;70.74;98612.41;5013335;28;20038;-66
2022/12/12 05:48:43;;;;;;;1.63;1.60;;;;;;;-1.06;70.55;98612.38;5016916;28;20068;-66
2022/12/12 05:51:11;;;;;;;1.48;1.38;;;;;;;-1.06;70.65;98614.88;5017254;28;20287;-66
2022/12/12 05:53:40;;;;;;;4.00;2.00;;;;;;;-1.04;70.77;98615.75;5016976;28;20045;-67
2022/12/12 05:56:13;;;;;;;1.30;1.13;;;;;;;-1.08;70.76;98611.47;5017320;28;20457;-66
2022/12/12 05:58:42;;;;;;;2.35;2.15;;;;;;;-1.09;70.91;98613.13;5017022;28;20054;-66
2022/12/12 06:01:11;;;;;;;0.93;0.93;;;;;;;-1.11;70.77;98617.25;5016865;28;20137;-67
2022/12/12 06:03:40;;;;;;;0.70;0.70;;;;;;;-1.22;70.83;98608.56;5016931;28;20399;-66
2022/12/12 06:06:09;;;;;;;1.48;1.38;;;;;;;-1.15;70.79;98622.13;5023228;28;20045;-66
2022/12/12 06:08:37;;;;;;;1.17;1.15;;;;;;;-1.16;70.86;98628.78;5036550;28;20124;-67
2022/12/12 06:11:07;;;;;;;0.70;0.70;;;;;;;-1.15;70.97;98629.63;5036371;28;20129;-66
2022/12/12 06:13:38;;;;;;;1.45;1.23;;;;;;;-1.15;71.01;98625.47;5036403;28;20049;-67
2022/12/12 06:16:08;;;;;;;2.03;1.92;;;;;;;-1.17;70.88;98631.22;5036391;28;20068;-67
2022/12/12 06:18:38;;;;;;;1.60;1.50;;;;;;;-1.13;70.89;98633.03;5036410;28;20094;-67
2022/12/12 06:21:08;;;;;;;1.08;1.08;;;;;;;-1.11;70.93;98636.41;5036557;28;20076;-67
2022/12/12 06:23:40;;;;;;;1.10;0.95;;;;;;;-1.12;70.82;98635.56;5036246;28;20060;-67
2022/12/12 06:26:11;;;;;;;1.00;1.00;;;;;;;-1.14;70.98;98641.34;5036580;28;20522;-67
2022/12/12 06:28:43;;;;;;;1.10;1.10;;;;;;;-1.22;70.90;98628.59;5036466;28;20055;-67
2022/12/12 06:31:12;;;;;;;1.02;1.00;;;;;;;-1.15;71.07;98634.66;5036444;28;20045;-66
2022/12/12 06:33:42;;;;;;;0.95;0.95;;;;;;;-1.23;71.01;98621.06;5036490;28;20056;-67
2022/12/12 06:36:11;;;;;;;;;;;;;;;-1.12;70.90;98634.72;5036397;28;20049;-67
2022/12/12 06:38:41;;;;;;;1.25;1.15;;;;;;;-1.14;70.80;98633.81;5036297;28;19925;-66
2022/12/12 06:41:12;;;;;;;0.70;0.70;;;;;;;-1.17;70.76;98633.72;5036266;28;20045;-67
2022/12/12 06:43:42;;;;;;;0.82;0.82;;;;;;;-1.20;71.13;98632.00;5036213;28;20077;-67
2022/12/12 06:46:15;;;;;;;1.20;1.15;;;;;;;-1.23;71.26;98641.94;5035873;28;20507;-67
2022/12/12 06:48:44;;;;;;;1.33;1.30;;;;;;;-1.24;71.38;98640.22;5035807;28;20061;-67
2022/12/12 06:51:16;;;;;;;0.70;0.70;;;;;;;-1.27;70.98;98644.31;5035636;28;20144;-67
2022/12/12 06:53:45;;;;;;;1.10;1.02;;;;;;;-1.31;71.24;98645.84;5036069;28;20063;-67
2022/12/12 06:56:16;;;;;;;2.40;2.15;;;;;;;-1.32;71.02;98645.81;5036002;28;20050;-66
2022/12/12 06:58:46;;;;;;;3.80;2.35;;;;;;;-1.38;71.07;98637.34;5035265;28;20049;-67
2022/12/12 07:01:17;;;;;;;1.38;1.30;;;;;;;-1.37;71.09;98648.19;5035572;28;20065;-66
2022/12/12 07:03:48;;;;;;;4.03;3.03;;;;;;;-1.51;71.31;98620.25;5035467;28;20060;-67
2022/12/12 07:06:18;;;;;;;0.60;0.60;;;;;;;-1.32;71.07;98650.84;5035523;28;20103;-67
2022/12/12 07:08:46;;;;;;;1.67;1.58;;;;;;;-1.36;71.27;98645.72;5035628;28;20041;-66
2022/12/12 07:11:17;;;;;;;1.47;1.23;;;;;;;-1.37;71.32;98645.69;5035489;28;20384;-66
2022/12/12 07:13:47;;;;;;;0.98;0.98;;;;;;;-1.42;71.25;98650.53;5035382;28;20692;-66
2022/12/12 07:16:16;;;;;;;0.82;0.82;;;;;;;-1.45;70.98;98652.13;5035219;28;20480;-67
2022/12/12 07:18:45;;;;;;;1.48;1.40;;;;;;;-1.48;70.92;98650.38;5017770;28;20395;-66
2022/12/12 07:21:16;;;;;;;0.57;0.57;;;;;;;-1.48;70.85;98650.38;5035512;28;20140;-67
2022/12/12 07:23:45;;;;;;;1.90;1.80;;;;;;;-1.49;70.54;98658.66;5035135;28;20053;-66
2022/12/12 07:26:15;;;;;;;1.63;1.53;;;;;;;-1.53;70.48;98661.03;5035352;28;20108;-66
2022/12/12 07:28:44;;;;;;;0.80;0.80;;;;;;;-1.54;70.59;98660.22;5035010;28;20060;-67
2022/12/12 07:31:16;;;;;;;1.35;1.25;;;;;;;-1.50;70.30;98662.00;5034928;28;20045;-66
2022/12/12 07:33:45;;;;;;;1.75;1.65;;;;;;;-1.53;70.60;98666.91;5034872;28;20056;-67
2022/12/12 07:36:15;;;;;;;3.20;1.67;;;;;;;-1.56;70.46;98656.78;5034739;28;20042;-67
2022/12/12 07:38:44;;;;;;;0.93;0.90;;;;;;;-1.59;70.31;98661.72;5034796;28;20140;-66
2022/12/12 07:41:15;;;;;;;1.58;1.48;;;;;;;-1.59;70.48;98666.72;5034788;28;20064;-66
2022/12/12 07:43:49;;;;;;;1.80;1.70;;;;;;;-1.60;70.53;98670.00;5034773;28;20049;-66
2022/12/12 07:46:23;;;;;;;0.40;0.40;;;;;;;-1.55;70.54;98666.00;5034760;28;20056;-66
2022/12/12 07:48:53;;;;;;;0.70;0.70;;;;;;;-1.48;70.91;98670.38;5032676;28;20491;-67
2022/12/12 07:51:22;;;;;;;1.67;1.58;;;;;;;-1.42;70.64;98673.06;4995341;28;20042;-66
2022/12/12 07:53:51;;;;;;;0.60;0.60;;;;;;;-1.29;70.64;98675.91;4996181;28;20064;-66
2022/12/12 07:56:19;;;;;;;1.02;1.00;;;;;;;-1.40;70.99;98651.47;5009870;28;20053;-66
2022/12/12 07:58:48;;;;;;;1.42;1.33;;;;;;;-1.28;71.04;98667.63;5014627;28;20041;-67
2022/12/12 08:01:21;;;;;;;1.43;1.33;;;;;;;-1.31;70.85;98665.03;5014734;28;20069;-66
2022/12/12 08:03:51;;;;;;;2.20;2.10;;;;;;;-1.26;71.21;98671.00;4995014;28;20317;-66
2022/12/12 08:06:20;;;;;;;;;;;;;;;-1.28;70.94;98677.63;5015198;28;20042;-66
2022/12/12 08:08:49;;;;;;;0.73;0.73;;;;;;;-1.33;71.63;98679.16;5014430;28;19921;-66
2022/12/12 08:11:20;;;;;;;2.72;2.45;;;;;;;-1.27;71.56;98681.84;5013903;28;20271;-66
2022/12/12 08:13:50;;;;;;;1.65;1.55;;;;;;;-1.21;71.76;98694.53;5014754;28;20046;-66
2022/12/12 08:16:22;;;;;;;0.90;0.90;;;;;;;-1.15;71.62;98697.22;5014773;28;20046;-67
2022/12/12 08:18:53;;;;;;;1.55;1.45;;;;;;;-1.11;71.77;98694.84;5014481;28;20140;-66
2022/12/12 08:21:23;;;;;;;1.80;1.70;;;;;;;-1.05;71.43;98691.66;5014351;28;20125;-67
2022/12/12 08:23:56;;;;;;;1.00;1.00;;;;;;;-1.03;71.49;98700.06;5014637;28;20064;-66
2022/12/12 08:26:28;;;;;;;1.27;1.23;;;;;;;-1.11;71.38;98697.34;5014622;28;20081;-66
2022/12/12 08:28:58;;;;;;;2.42;2.00;;;;;;;-1.16;71.62;98698.00;5014303;28;20046;-66
2022/12/12 08:31:28;;;;;;;2.00;1.88;;;;;;;-1.20;71.62;98697.06;5014159;28;20058;-67
2022/12/12 08:33:58;;;;;;;0.70;0.70;;;;;;;-1.27;71.56;98696.84;5014159;28;20053;-66
2022/12/12 08:36:30;;;;;;;0.50;0.50;;;;;;;-1.27;71.77;98704.38;5014144;28;20427;-66
2022/12/12 08:39:02;;;;;;;0.98;0.95;;;;;;;-1.29;72.07;98705.94;5014387;28;20084;-67
2022/12/12 08:41:30;;;;;;;2.35;2.25;;;;;;;-1.32;72.19;98716.75;5012271;28;20094;-67
2022/12/12 08:43:59;;;;;;;2.38;2.20;;;;;;;-1.34;72.20;98712.50;5008202;28;20045;-70
2022/12/12 08:46:29;;;;;;;1.15;1.05;;;;;;;-1.31;72.16;98717.56;5014191;28;20038;-65
2022/12/12 08:48:58;;;;;;;0.73;0.73;;;;;;;-1.24;72.39;98719.44;5013632;28;20053;-66
2022/12/12 08:51:26;;;;;;;0.60;0.60;;;;;;;-1.21;72.56;98719.53;5014050;28;20516;-66
2022/12/12 08:53:55;;;;;;;0.90;0.90;;;;;;;-1.22;72.75;98715.38;5013690;28;20045;-65
2022/12/12 08:56:25;;;;;;;13.13;3.15;;;;;;;-1.12;72.73;98729.81;5007597;28;20448;-66
2022/12/12 08:58:54;;;;;;;1.52;1.42;;;;;;;-1.10;72.84;98733.22;5001736;28;20382;-66
2022/12/12 09:01:25;;;;;;;2.15;1.55;;;;;;;-1.00;72.61;98731.03;4994230;28;20089;-66
2022/12/12 09:03:57;;;;;;;4.18;3.78;;;;;;;-0.93;72.60;98722.91;5005198;28;20484;-66
2022/12/12 09:06:26;;;;;;;2.55;1.90;;;;;;;-0.87;72.45;98724.75;5000081;28;20045;-66
2022/12/12 09:08:56;;;;;;;1.45;1.35;;;;;;;-0.90;72.44;98728.00;5013732;28;20046;-66
2022/12/12 09:11:26;;;;;;;1.90;1.77;;;;;;;-0.90;72.03;98729.66;5013534;28;20034;-66
2022/12/12 09:13:54;;;;;;;0.80;0.80;;;;;;;-0.85;71.99;98735.63;4996034;28;20057;-66
2022/12/12 09:16:25;;;;;;;2.97;2.67;;;;;;;-0.85;72.16;98740.66;5013620;28;20038;-66
2022/12/12 09:18:56;;;;;;;0.68;0.68;;;;;;;-0.84;72.15;98738.19;5013684;28;20058;-66
2022/12/12 09:21:24;;;;;;;2.15;2.05;;;;;;;-0.83;71.93;98739.03;5014044;28;20050;-65
2022/12/12 09:23:53;;;;;;;1.63;1.52;;;;;;;-0.80;72.02;98739.13;5010133;28;20038;-66
2022/12/12 09:26:22;;;;;;;3.15;1.98;;;;;;;-0.71;71.85;98739.38;4997964;28;20038;-66
2022/12/12 09:28:50;;;;;;;0.70;0.70;;;;;;;-0.62;71.84;98729.59;4997935;28;20035;-66
2022/12/12 09:31:19;;;;;;;2.42;2.30;;;;;;;-0.58;71.70;98730.56;4998006;28;20523;-65
2022/12/12 09:33:49;;;;;;;2.60;2.40;;;;;;;-0.55;71.86;98731.47;4997744;28;20053;-65
2022/12/12 09:36:19;;;;;;;4.93;2.45;;;;;;;-0.48;71.55;98723.31;5002791;28;20118;-65
2022/12/12 09:38:51;;;;;;;0.82;0.82;;;;;;;-0.44;71.65;98730.13;5007070;28;20050;-67
2022/12/12 09:41:25;;;;;;;2.35;2.20;;;;;;;-0.42;71.48;98736.03;5017245;28;20506;-65
2022/12/12 09:43:57;;;;;;;2.90;2.47;;;;;;;-0.31;71.27;98736.31;5016256;28;20385;-64
2022/12/12 09:46:37;;;;;;;1.45;1.35;;;;;;;-0.25;71.28;98736.47;5017379;28;20551;-64
2022/12/12 09:49:17;;;;;;;1.27;1.17;;;;;;;-0.19;71.36;98737.47;5017011;28;20060;-65
2022/12/12 09:51:50;;;;;;;1.48;1.38;;;;;;;-0.09;71.32;98739.41;5017159;28;20050;-67
2022/12/12 09:54:21;;;;;;;1.27;1.20;;;;;;;-0.22;70.92;98712.34;5017028;28;20052;-69
2022/12/12 09:57:08;;;;;;;1.80;1.70;;;;;;;-0.05;71.19;98736.16;5017032;28;20100;-69
2022/12/12 09:59:47;;;;;;;0.95;0.95;;;;;;;-0.01;70.36;98753.00;5015423;28;20050;-69
2022/12/12 10:02:45;;;;;;;1.50;1.40;;;;;;;-0.01;70.93;98745.50;4999762;28;20088;-70
2022/12/12 10:05:29;;;;;;;1.92;1.83;;;;;;;0.00;70.78;98742.16;5016788;28;20050;-70
2022/12/12 10:08:07;;;;;;;1.13;1.08;;;;;;;-0.01;70.57;98752.16;5015568;28;20049;-70
2022/12/12 10:10:39;;;;;;;1.83;1.73;;;;;;;-0.12;70.75;98749.34;5002786;28;20048;-70
2022/12/12 10:13:16;;;;;;;1.75;1.60;;;;;;;-0.10;70.37;98746.91;4998750;28;20050;-70
2022/12/12 10:15:47;;;;;;;0.95;0.95;;;;;;;-0.03;70.73;98754.63;5003983;28;20053;-70
2022/12/12 10:18:28;;;;;;;0.85;0.85;;;;;;;-0.08;70.84;98736.13;5016710;28;20050;-71
2022/12/12 10:21:01;;;;;;;1.20;1.15;;;;;;;-0.07;70.76;98737.78;5008245;28;20046;-70
2022/12/12 10:23:36;;;;;;;1.63;1.52;;;;;;;0.05;69.88;98749.78;5006542;28;20045;-70
2022/12/12 10:26:08;;;;;;;2.00;1.90;;;;;;;0.05;70.17;98751.47;5008059;28;20408;-70
2022/12/12 10:28:37;;;;;;;2.83;1.50;;;;;;;0.07;69.90;98744.81;5000632;28;20049;-70
2022/12/12 10:31:20;;;;;;;1.02;1.02;;;;;;;0.09;69.74;98750.72;4996881;28;20038;-69
2022/12/12 10:34:05;;;;;;;0.70;0.70;;;;;;;0.06;69.87;98754.00;4995690;28;20050;-69
2022/12/12 10:36:52;;;;;;;3.80;3.45;;;;;;;-0.04;70.02;98757.94;4996702;28;20054;-69
2022/12/12 10:39:31;;;;;;;3.10;1.17;;;;;;;-0.04;70.41;98754.56;4996505;28;20054;-69
2022/12/12 10:42:06;;;;;;;1.05;1.05;;;;;;;-0.06;70.34;98754.53;4996604;28;20125;-69
2022/12/12 10:44:56;;;;;;;1.27;1.20;;;;;;;-0.07;70.76;98760.34;4996577;28;20046;-69
2022/12/12 10:47:25;;;;;;;2.95;2.65;;;;;;;-0.13;70.80;98757.72;4997111;28;20401;-69
2022/12/12 10:50:01;;;;;;;0.77;0.77;;;;;;;-0.19;70.86;98752.50;4996257;28;20065;-69
2022/12/12 10:52:32;;;;;;;0.50;0.50;;;;;;;-0.08;70.55;98758.69;4996835;28;20050;-69
2022/12/12 10:55:09;;;;;;;1.00;1.00;;;;;;;-0.09;70.84;98744.44;4996403;28;20133;-69
2022/12/12 10:57:38;;;;;;;1.05;1.00;;;;;;;-0.02;71.10;98756.31;4996654;28;20104;-68
2022/12/12 11:00:25;;;;;;;1.45;1.35;;;;;;;0.05;71.13;98748.97;4996241;28;20129;-68
2022/12/12 11:02:56;;;;;;;0.50;0.50;;;;;;;-0.04;70.88;98752.91;4996810;28;20051;-68
2022/12/12 11:05:30;;;;;;;5.25;2.88;;;;;;;-0.01;71.01;98763.03;4996144;28;20050;-68
2022/12/12 11:08:03;;;;;;;1.85;1.75;;;;;;;-0.08;70.88;98761.19;4996225;28;20130;-68
2022/12/12 11:10:35;;;;;;;2.33;2.17;;;;;;;-0.12;70.58;98764.41;4996118;28;20489;-68
2022/12/12 11:13:15;;;;;;;1.33;1.25;;;;;;;-0.19;70.94;98757.53;5001179;28;20050;-68
2022/12/12 11:15:50;;;;;;;0.93;0.93;;;;;;;-0.24;70.29;98756.56;5015600;28;20073;-68
2022/12/12 11:18:21;;;;;;;0.70;0.70;;;;;;;-0.26;70.53;98765.69;5015520;28;20053;-68
2022/12/12 11:20:56;;;;;;;0.70;0.70;;;;;;;-0.21;69.95;98764.16;4998232;28;20519;-68
2022/12/12 11:23:28;;;;;;;0.73;0.73;;;;;;;-0.21;70.64;98759.16;5015787;28;20517;-67
2022/12/12 11:26:02;;;;;;;0.80;0.80;;;;;;;-0.25;70.64;98761.53;5015426;28;20045;-67
2022/12/12 11:28:34;;;;;;;0.85;0.85;;;;;;;-0.24;70.73;98764.06;5015678;28;20049;-67
2022/12/12 11:31:07;;;;;;;0.50;0.50;;;;;;;-0.13;70.90;98757.72;5015897;28;20041;-67
2022/12/12 11:33:41;;;;;;;2.50;2.20;;;;;;;-0.05;70.57;98758.72;5015484;28;20038;-67
2022/12/12 11:36:15;;;;;;;0.60;0.60;;;;;;;-0.03;70.84;98754.63;5015234;28;20056;-67
2022/12/12 11:38:49;;;;;;;1.00;0.98;;;;;;;-0.02;70.07;98760.47;5015482;28;20049;-67
2022/12/12 11:41:20;;;;;;;1.02;1.02;;;;;;;-0.01;70.26;98760.53;5015425;28;20451;-67
2022/12/12 11:44:00;;;;;;;1.27;1.17;;;;;;;0.04;70.09;98759.78;5015687;28;20045;-68
2022/12/12 11:46:32;;;;;;;2.00;1.90;;;;;;;0.08;70.09;98761.56;5015218;28;20042;-67
2022/12/12 11:49:03;;;;;;;3.97;2.03;;;;;;;0.12;70.34;98768.38;5011587;28;20396;-68
2022/12/12 11:51:38;;;;;;;1.30;1.25;;;;;;;0.22;70.27;98768.63;5006546;28;20049;-68
2022/12/12 11:54:13;;;;;;;0.77;0.77;;;;;;;0.31;70.88;98760.50;5015072;28;20034;-68
2022/12/12 11:56:50;;;;;;;2.47;2.28;;;;;;;0.38;70.85;98762.34;5014876;28;20096;-68
2022/12/12 11:59:41;;;;;;;0.77;0.77;;;;;;;0.39;70.69;98759.00;5014821;28;20100;-68
2022/12/12 12:02:32;;;;;;;0.57;0.57;;;;;;;0.36;70.76;98758.94;4997533;28;20112;-68
2022/12/12 12:05:10;;;;;;;0.85;0.85;;;;;;;0.27;71.23;98761.22;5007484;28;20046;-68
2022/12/12 12:07:57;;;;;;;0.82;0.82;;;;;;;0.32;71.71;98764.69;5013187;28;20046;-68
2022/12/12 12:10:39;;;;;;;8.02;2.95;;;;;;;0.36;71.66;98768.97;5006937;28;20045;-68
2022/12/12 12:13:32;;;;;;;0.80;0.80;;;;;;;0.29;72.37;98772.16;4995240;28;20054;-68
2022/12/12 12:16:14;;;;;;;2.33;2.13;;;;;;;0.24;72.64;98768.69;4995196;28;20381;-68
2022/12/12 12:18:57;;;;;;;0.80;0.80;;;;;;;0.15;72.56;98773.44;4995247;28;20049;-68